CheckWX is a tool to help pilots better visualize weather data.  It is not intended as a substitute for an official pre-flight weather briefing.

18:41:13 UTC

CYSF METAR
Stony Rapids Airport
Stony Rapids, Canada
Current

41 mins ago

CYSF 261800Z AUTO 26010KT 9SM -RA BKN042 OVC050 03/00 A2972 RMK SLP080
Observed
Mar-26 @ 18:00 UTC
Wind
  • 260° at 10 KTS
Visibility
9 SM
Flight Rules
VFR
Conditions
Light Rain
Cloud Levels
  • Broken at 4,200' AGL
  • Overcast at 5,000' AGL
Temperature
C / 37°F
Dewpoint
C / 32°F
Humidity
81%
Altimeter
29.72" Hg
Pressure
1008 hPa
Previous

1 hour ago

CYSF 261728Z AUTO 29008KT 9SM -RA BKN041 OVC050 02/M00 A2972 RMK SLP081
Observed
Mar-26 @ 17:28 UTC
Wind
  • 290° at 8 KTS
Visibility
9 SM
Flight Rules
VFR
Conditions
Light Rain
Cloud Levels
  • Broken at 4,100' AGL
  • Overcast at 5,000' AGL
Temperature
C / 36°F
Dewpoint
C / 32°F
Humidity
87%
Altimeter
29.72" Hg
Pressure
1008.1 hPa
Previous

1 hour ago

CYSF 261718Z AUTO 29007KT 9SM -RA -UP FEW035 OVC041 02/M01 A2972 RMK SLP081
Observed
Mar-26 @ 17:18 UTC
Wind
  • 290° at 7 KTS
Visibility
9 SM
Flight Rules
VFR
Conditions
Light Rain, Unknown precipitation
Cloud Levels
  • Few at 3,500' AGL
  • Overcast at 4,100' AGL
Temperature
C / 36°F
Dewpoint
-1°C / 30°F
Humidity
81%
Altimeter
29.72" Hg
Pressure
1008.1 hPa